createdAt,value
2024-02-19T13:34:55.272Z,4.70
2024-02-19T13:37:28.929Z,3.50
2024-02-19T13:40:01.237Z,4.60
2024-02-19T13:42:34.988Z,4.40
2024-02-19T13:45:10.448Z,3.60
2024-02-19T13:47:42.682Z,4.80
2024-02-19T13:50:15.244Z,5.50
2024-02-19T13:52:47.429Z,5.30
2024-02-19T13:55:20.080Z,5.20
2024-02-19T13:57:53.125Z,13.70
2024-02-19T14:00:26.723Z,5.40
2024-02-19T14:02:59.066Z,5.60
2024-02-19T14:05:33.704Z,6.70
2024-02-19T14:08:09.567Z,6.70
2024-02-19T14:10:42.296Z,5.80
2024-02-19T14:13:14.524Z,5.60
2024-02-19T14:15:47.611Z,4.20
2024-02-19T14:18:20.012Z,4.10
2024-02-19T14:20:52.832Z,4.10
2024-02-19T14:23:25.211Z,7.50
2024-02-19T14:25:58.425Z,7.80
2024-02-19T14:28:30.465Z,9.10
2024-02-19T14:31:04.093Z,7.50
2024-02-19T14:33:36.338Z,5.70
2024-02-19T14:36:16.883Z,4.30
2024-02-19T14:38:58.209Z,6.90
2024-02-19T14:41:34.433Z,6.00
2024-02-19T14:44:13.857Z,6.70
2024-02-19T14:46:54.630Z,5.40
2024-02-19T14:49:38.194Z,12.20
2024-02-19T14:52:21.065Z,5.20
2024-02-19T14:55:32.993Z,7.50
2024-02-19T14:58:14.123Z,5.80
2024-02-19T15:00:55.452Z,12.60
2024-02-19T15:03:34.243Z,5.70
2024-02-19T15:06:14.130Z,7.40
2024-02-19T15:09:00.388Z,4.80
2024-02-19T15:11:38.938Z,8.70
2024-02-19T15:14:19.068Z,5.60
2024-02-19T15:16:58.801Z,6.50
2024-02-19T15:19:36.121Z,8.10
2024-02-19T15:22:20.103Z,5.70
2024-02-19T15:25:41.696Z,4.50
2024-02-19T15:28:42.348Z,4.80
2024-02-19T15:32:07.605Z,4.00
2024-02-19T15:35:13.000Z,6.80
2024-02-19T15:41:06.966Z,6.70
2024-02-19T15:43:59.184Z,9.50
2024-02-19T15:46:39.964Z,6.90
2024-02-19T15:49:19.814Z,5.80
2024-02-19T15:51:56.987Z,8.10
2024-02-19T15:54:47.478Z,10.00
2024-02-19T15:57:47.367Z,10.80
2024-02-19T16:01:02.420Z,8.90
2024-02-19T16:03:48.725Z,7.50
2024-02-19T16:06:41.562Z,8.70
2024-02-19T16:09:52.452Z,8.10
2024-02-19T16:12:54.178Z,7.10
2024-02-19T16:15:45.312Z,9.30
2024-02-19T16:18:47.965Z,10.80
2024-02-19T16:21:26.498Z,12.00
2024-02-19T16:24:35.987Z,10.50
2024-02-19T16:27:20.405Z,12.50
2024-02-19T16:30:17.439Z,16.70
2024-02-19T16:33:09.501Z,12.80
2024-02-19T16:35:49.844Z,10.10
2024-02-19T16:38:43.837Z,13.50
2024-02-19T16:41:36.754Z,10.90
2024-02-19T16:44:59.633Z,12.80
2024-02-19T16:47:50.239Z,11.00
2024-02-19T16:50:34.658Z,11.90
2024-02-19T16:53:36.150Z,18.20
2024-02-19T16:56:25.068Z,19.90
2024-02-19T17:02:24.074Z,13.10
2024-02-19T17:05:08.649Z,13.30
2024-02-19T17:08:39.994Z,13.10
2024-02-19T17:11:29.411Z,15.30
2024-02-19T17:14:05.740Z,11.10
2024-02-19T17:17:17.697Z,10.60
2024-02-19T17:20:13.830Z,18.60
2024-02-19T17:22:57.007Z,25.30
2024-02-19T17:25:42.530Z,35.10
2024-02-19T17:28:24.563Z,32.10
2024-02-19T17:31:14.005Z,26.70
2024-02-19T17:33:53.197Z,20.70
2024-02-19T17:36:29.008Z,15.50
2024-02-19T17:39:10.610Z,14.80
2024-02-19T17:41:43.775Z,15.60
2024-02-19T17:44:22.707Z,17.70
2024-02-19T17:47:04.463Z,21.20
2024-02-19T17:49:46.964Z,19.00
2024-02-19T17:52:19.890Z,24.40
2024-02-19T17:55:00.737Z,24.10
2024-02-19T17:57:36.216Z,21.80
2024-02-19T18:00:14.796Z,26.20
2024-02-19T18:02:49.617Z,27.90
2024-02-19T18:05:39.959Z,21.60
2024-02-19T18:08:18.894Z,19.70
2024-02-19T18:11:17.113Z,23.60
2024-02-19T18:14:24.165Z,24.30
2024-02-19T18:20:23.682Z,33.60
2024-02-19T18:23:19.493Z,30.90
2024-02-19T18:26:03.482Z,33.90
2024-02-19T18:28:38.646Z,42.70
2024-02-19T18:31:14.196Z,37.20
2024-02-19T18:33:51.486Z,34.70
2024-02-19T18:36:28.183Z,27.60
2024-02-19T18:39:08.193Z,23.90
2024-02-19T18:41:58.997Z,26.70
2024-02-19T18:44:52.115Z,41.60
2024-02-19T18:47:43.088Z,27.70
2024-02-19T18:50:23.245Z,32.00
2024-02-19T18:53:27.508Z,27.00
2024-02-19T18:56:06.218Z,33.90
2024-02-19T18:58:46.533Z,33.90
2024-02-19T19:02:02.572Z,20.00
2024-02-19T19:04:54.285Z,24.20
2024-02-19T19:07:34.382Z,21.70
2024-02-19T19:10:10.200Z,22.20
2024-02-19T19:12:44.023Z,22.20
2024-02-19T19:15:17.353Z,22.10
2024-02-19T19:21:54.492Z,24.90
2024-02-19T19:24:28.399Z,25.40
2024-02-19T19:27:08.463Z,20.40
2024-02-19T19:29:43.204Z,31.70
2024-02-19T19:35:11.854Z,26.80
2024-02-19T19:38:52.394Z,37.10
2024-02-19T19:44:33.429Z,33.50
2024-02-19T19:47:06.484Z,33.80
2024-02-19T19:49:38.798Z,27.50
2024-02-19T19:52:11.974Z,28.90
2024-02-19T19:54:45.433Z,30.90
2024-02-19T19:57:17.789Z,30.60
2024-02-19T19:59:52.233Z,31.60
2024-02-19T20:02:26.640Z,32.40
2024-02-19T20:05:00.508Z,32.50
2024-02-19T20:07:32.967Z,37.50
2024-02-19T20:10:07.177Z,32.20
2024-02-19T20:12:39.920Z,38.10
2024-02-19T20:15:16.009Z,40.80
2024-02-19T20:17:48.246Z,33.90
2024-02-19T20:20:21.682Z,32.10
2024-02-19T20:22:53.778Z,37.60
2024-02-19T20:25:26.368Z,38.70
2024-02-19T20:27:59.288Z,34.10
2024-02-19T20:30:34.275Z,38.20
2024-02-19T20:33:08.299Z,34.30
2024-02-19T20:35:41.070Z,44.10
2024-02-19T20:38:13.525Z,46.10
2024-02-19T20:40:45.899Z,47.20
2024-02-19T20:43:18.077Z,44.70
2024-02-19T20:45:51.201Z,50.20
2024-02-19T20:48:24.515Z,38.00
2024-02-19T20:50:57.180Z,40.40
2024-02-19T20:53:29.406Z,31.70
2024-02-19T20:56:01.946Z,40.50
2024-02-19T20:58:37.529Z,46.20
2024-02-19T21:01:09.850Z,50.50
2024-02-19T21:03:45.863Z,47.10
2024-02-19T21:06:21.944Z,47.90
2024-02-19T21:08:54.067Z,45.20
2024-02-19T21:11:27.052Z,49.50
2024-02-19T21:13:59.455Z,49.50
2024-02-19T21:16:32.029Z,56.30
2024-02-19T21:19:06.796Z,50.20
2024-02-19T21:21:39.451Z,48.70
2024-02-19T21:24:12.332Z,55.10
2024-02-19T21:26:44.901Z,59.20
2024-02-19T21:29:17.532Z,52.00
2024-02-19T21:31:50.379Z,54.30
2024-02-19T21:34:23.856Z,56.20
2024-02-19T21:36:58.639Z,60.10
2024-02-19T21:39:31.095Z,50.40
2024-02-19T21:42:04.784Z,57.30
2024-02-19T21:44:37.758Z,53.80
2024-02-19T21:47:11.182Z,60.80
2024-02-19T21:49:43.781Z,66.00
2024-02-19T21:52:16.573Z,55.70
2024-02-19T21:54:49.288Z,64.80
2024-02-19T21:57:22.604Z,58.00
2024-02-19T21:59:55.053Z,61.30
2024-02-19T22:02:28.714Z,56.20
2024-02-19T22:05:01.422Z,55.80
2024-02-19T22:07:34.145Z,58.80
2024-02-19T22:10:08.837Z,61.50
2024-02-19T22:12:41.932Z,60.20
2024-02-19T22:15:14.520Z,64.10
2024-02-19T22:17:47.495Z,56.00
2024-02-19T22:20:19.915Z,55.80
2024-02-19T22:22:52.274Z,64.20
2024-02-19T22:25:24.404Z,62.50
2024-02-19T22:28:01.309Z,58.50
2024-02-19T22:30:34.691Z,54.70
2024-02-19T22:33:07.485Z,60.80
2024-02-19T22:35:40.759Z,56.80
2024-02-19T22:38:13.685Z,51.80
2024-02-19T22:40:46.049Z,57.30
2024-02-19T22:43:18.186Z,61.90
2024-02-19T22:45:51.439Z,61.90
2024-02-19T22:48:23.853Z,56.80
2024-02-19T22:50:56.346Z,60.20
2024-02-19T22:53:28.378Z,59.60
2024-02-19T22:56:00.711Z,50.10
2024-02-19T22:58:35.055Z,54.20
2024-02-19T23:03:39.389Z,58.10
2024-02-19T23:06:11.880Z,56.30
2024-02-19T23:08:43.931Z,57.40
2024-02-19T23:11:16.807Z,53.90
2024-02-19T23:13:48.825Z,59.10
2024-02-19T23:16:20.958Z,52.70
2024-02-19T23:18:54.354Z,49.30
2024-02-19T23:21:26.726Z,54.40
2024-02-19T23:23:58.637Z,57.50
2024-02-19T23:26:30.935Z,50.60
2024-02-19T23:29:02.954Z,49.40
2024-02-19T23:31:35.044Z,49.90
2024-02-19T23:34:07.322Z,48.70
2024-02-19T23:36:41.119Z,49.90
2024-02-19T23:39:13.116Z,46.20
2024-02-19T23:41:45.171Z,46.60
2024-02-19T23:44:17.162Z,52.50
2024-02-19T23:46:50.320Z,48.20
2024-02-19T23:49:24.666Z,43.70
2024-02-19T23:51:57.820Z,51.40
2024-02-19T23:54:31.346Z,50.10
2024-02-19T23:57:04.134Z,54.10
2024-02-19T23:59:36.286Z,53.20
